Time;durP1;ratioP1;P1;durP2;ratioP2;P2;SDS_P1;SDS_P2;PMS_P1;PMS_P2;Temp;Humidity;BMP_temperature;BMP_pressure;BME280_temperature;BME280_humidity;BME280_pressure;Samples;Min_cycle;Max_cycle;Signal;HPM_P1;HPM_P2
2022/06/28 00:02:08;;;;;;;10.07;8.80;;;23.60;99.90;;;;;;5072385;28;20056;-76
2022/06/28 00:04:33;;;;;;;10.95;9.27;;;23.60;99.90;;;;;;5070964;28;20563;-77
2022/06/28 00:06:59;;;;;;;9.60;8.70;;;23.60;99.90;;;;;;5069478;28;20502;-76
2022/06/28 00:09:25;;;;;;;10.20;9.00;;;23.50;99.90;;;;;;5072095;28;20024;-76
2022/06/28 00:11:52;;;;;;;10.25;9.35;;;23.50;99.90;;;;;;5072043;28;20067;-76
2022/06/28 00:17:03;;;;;;;11.02;8.93;;;23.40;99.90;;;;;;5070709;28;20039;-76
2022/06/28 00:19:29;;;;;;;10.88;9.43;;;23.40;99.90;;;;;;5072002;28;20016;-76
2022/06/28 00:21:55;;;;;;;11.80;10.00;;;23.40;99.90;;;;;;5071481;28;20352;-76
2022/06/28 00:24:21;;;;;;;15.35;10.48;;;23.40;99.90;;;;;;5070767;28;20115;-75
2022/06/28 00:26:48;;;;;;;11.63;9.80;;;23.30;99.90;;;;;;5071456;28;20494;-74
2022/06/28 00:29:14;;;;;;;10.93;9.25;;;23.30;99.90;;;;;;5070268;28;20521;-75
2022/06/28 00:31:41;;;;;;;10.52;9.43;;;23.30;99.90;;;;;;5071002;28;20439;-76
2022/06/28 00:34:07;;;;;;;12.77;9.88;;;23.20;99.90;;;;;;5070477;28;20483;-75
2022/06/28 00:36:33;;;;;;;9.85;6.47;;;23.20;99.90;;;;;;5071486;28;20025;-77
2022/06/28 00:38:59;;;;;;;11.55;8.43;;;23.10;99.90;;;;;;5071871;28;20029;-76
2022/06/28 00:41:26;;;;;;;14.30;9.40;;;23.10;99.90;;;;;;5070279;28;20127;-77
2022/06/28 00:43:52;;;;;;;12.80;9.45;;;23.10;99.90;;;;;;5069139;28;20027;-75
2022/06/28 00:46:19;;;;;;;10.20;9.10;;;23.00;99.90;;;;;;5071498;28;20056;-77
2022/06/28 00:48:45;;;;;;;11.32;9.60;;;23.00;99.90;;;;;;5070319;28;20028;-76
2022/06/28 00:51:11;;;;;;;10.55;9.40;;;23.00;99.90;;;;;;5071355;28;20451;-76
2022/06/28 00:53:37;;;;;;;11.18;9.90;;;23.00;99.90;;;;;;5071043;28;20043;-75
2022/06/28 00:56:03;;;;;;;15.88;8.88;;;23.00;99.90;;;;;;5071098;28;20036;-75
2022/06/28 00:58:28;;;;;;;10.65;8.38;;;23.00;99.90;;;;;;5067670;28;20455;-76
2022/06/28 01:00:54;;;;;;;10.25;8.98;;;23.00;99.90;;;;;;5071745;28;20016;-76
2022/06/28 01:03:22;;;;;;;9.10;8.20;;;22.90;99.90;;;;;;5072290;28;20027;-76
2022/06/28 01:05:49;;;;;;;10.02;7.90;;;22.90;99.90;;;;;;5075408;28;20086;-77
2022/06/28 01:08:15;;;;;;;10.48;8.85;;;22.90;99.90;;;;;;5073857;28;20051;-75
2022/06/28 01:10:42;;;;;;;9.50;8.52;;;22.90;99.90;;;;;;5074518;28;20066;-76
2022/06/28 01:13:09;;;;;;;10.30;9.00;;;22.90;99.90;;;;;;5074716;28;20390;-77
2022/06/28 01:15:36;;;;;;;20.38;8.85;;;22.90;99.90;;;;;;5075129;28;20115;-77
2022/06/28 01:18:04;;;;;;;8.88;7.97;;;22.90;99.90;;;;;;5073111;28;20060;-76
2022/06/28 01:20:30;;;;;;;11.90;8.45;;;22.90;99.90;;;;;;5074531;28;20029;-76
2022/06/28 01:22:56;;;;;;;10.02;8.68;;;22.80;99.90;;;;;;5074609;28;20021;-76
2022/06/28 01:25:23;;;;;;;11.10;8.45;;;22.80;99.90;;;;;;5074969;28;20070;-76
2022/06/28 01:27:50;;;;;;;11.93;8.85;;;22.80;99.90;;;;;;5074852;28;20041;-75
2022/06/28 01:30:16;;;;;;;10.18;9.10;;;22.80;99.90;;;;;;5074316;28;20024;-77
2022/06/28 01:32:42;;;;;;;16.90;8.85;;;22.80;99.90;;;;;;5073280;28;20440;-76
2022/06/28 01:35:09;;;;;;;9.55;8.50;;;22.70;99.90;;;;;;5074266;28;20078;-77
2022/06/28 01:37:35;;;;;;;9.25;8.32;;;22.70;99.90;;;;;;5074389;28;20017;-76
2022/06/28 01:40:03;;;;;;;9.00;8.05;;;22.70;99.90;;;;;;5074571;28;20029;-77
2022/06/28 01:42:29;;;;;;;9.90;9.00;;;22.70;99.90;;;;;;5072016;28;20421;-75
2022/06/28 01:44:57;;;;;;;10.07;8.82;;;22.60;99.90;;;;;;5074223;28;20021;-76
2022/06/28 01:47:25;;;;;;;8.88;7.97;;;22.60;99.90;;;;;;5074440;28;20060;-75
2022/06/28 01:49:52;;;;;;;8.73;7.85;;;22.60;99.90;;;;;;5075585;28;20122;-75
2022/06/28 01:52:18;;;;;;;8.85;8.05;;;22.60;99.90;;;;;;5075657;28;20029;-76
2022/06/28 01:54:43;;;;;;;12.45;8.05;;;22.60;99.90;;;;;;5073544;28;20374;-76
2022/06/28 01:57:10;;;;;;;11.48;8.05;;;22.60;99.90;;;;;;5074534;28;20025;-75
2022/06/28 01:59:39;;;;;;;13.30;8.77;;;22.60;99.90;;;;;;5074435;28;20029;-75
2022/06/28 02:02:05;;;;;;;9.75;8.80;;;22.60;99.90;;;;;;5074619;28;20025;-75
2022/06/28 02:04:31;;;;;;;10.02;8.73;;;22.60;99.90;;;;;;5074319;28;20020;-76
2022/06/28 02:06:58;;;;;;;11.55;8.93;;;22.60;99.90;;;;;;5072722;28;20028;-76
2022/06/28 02:09:24;;;;;;;10.65;9.40;;;22.50;99.90;;;;;;5074379;28;20056;-75
2022/06/28 02:11:51;;;;;;;9.57;8.65;;;22.50;99.90;;;;;;5074768;28;20494;-76
2022/06/28 02:14:17;;;;;;;10.15;9.23;;;22.50;99.90;;;;;;5073750;28;20090;-77
2022/06/28 02:16:43;;;;;;;9.75;8.85;;;22.40;99.90;;;;;;5074023;28;20028;-76
2022/06/28 02:19:09;;;;;;;11.63;10.20;;;22.40;99.90;;;;;;5074524;28;20040;-75
2022/06/28 02:21:36;;;;;;;10.05;9.07;;;22.40;99.90;;;;;;5073995;28;20025;-76
2022/06/28 02:24:03;;;;;;;10.07;9.10;;;22.40;99.90;;;;;;5072896;28;20127;-77
2022/06/28 02:26:29;;;;;;;10.13;9.13;;;22.30;99.90;;;;;;5073927;28;20055;-76
2022/06/28 02:28:55;;;;;;;11.05;8.70;;;22.30;99.90;;;;;;5073982;28;20032;-76
2022/06/28 02:31:21;;;;;;;9.48;8.57;;;22.30;99.90;;;;;;5073879;28;20041;-77
2022/06/28 02:33:47;;;;;;;10.18;9.25;;;22.30;99.90;;;;;;5072386;28;20123;-77
2022/06/28 02:41:38;;;;;;;11.05;10.00;;;22.30;99.90;;;;;;5074536;28;20463;-76
2022/06/28 02:44:04;;;;;;;11.15;10.02;;;22.20;99.90;;;;;;5074972;28;20024;-77
2022/06/28 02:46:31;;;;;;;11.70;10.57;;;22.20;99.90;;;;;;5074516;28;20055;-76
2022/06/28 02:48:57;;;;;;;13.52;11.02;;;22.20;99.90;;;;;;5073293;28;20031;-76
2022/06/28 02:51:22;;;;;;;15.70;10.82;;;22.20;99.90;;;;;;5073653;28;20028;-76
2022/06/28 02:53:48;;;;;;;16.20;11.70;;;22.20;99.90;;;;;;5073301;28;20028;-78
2022/06/28 02:56:14;;;;;;;14.38;12.48;;;22.20;99.90;;;;;;5071977;28;20785;-76
2022/06/28 02:58:40;;;;;;;19.08;12.05;;;22.20;99.90;;;;;;5073563;28;20551;-77
2022/06/28 03:01:06;;;;;;;23.08;11.80;;;22.20;99.90;;;;;;5073059;28;20017;-77
2022/06/28 03:03:32;;;;;;;13.98;12.30;;;22.20;99.90;;;;;;5073319;28;20032;-76
2022/06/28 03:05:58;;;;;;;15.82;12.10;;;22.20;99.90;;;;;;5073332;28;20025;-76
2022/06/28 03:08:24;;;;;;;12.70;11.43;;;22.20;99.90;;;;;;5073082;28;20081;-77
2022/06/28 03:10:50;;;;;;;12.75;11.27;;;22.10;99.90;;;;;;5074381;28;20021;-76
2022/06/28 03:13:16;;;;;;;13.98;12.15;;;22.10;99.90;;;;;;5072910;28;20024;-77
2022/06/28 03:15:41;;;;;;;12.63;10.93;;;22.10;99.90;;;;;;5072578;28;20120;-76
2022/06/28 03:18:07;;;;;;;11.68;10.48;;;22.10;99.90;;;;;;5073910;28;20044;-76
2022/06/28 03:20:33;;;;;;;10.93;9.80;;;22.10;99.90;;;;;;5074121;28;20054;-77
2022/06/28 03:22:59;;;;;;;10.05;9.05;;;22.10;99.90;;;;;;5073804;28;20032;-76
2022/06/28 03:25:25;;;;;;;11.35;9.90;;;22.20;99.90;;;;;;5073620;28;20052;-76
2022/06/28 03:27:51;;;;;;;10.82;9.60;;;22.20;99.90;;;;;;5073911;28;20048;-78
2022/06/28 03:30:17;;;;;;;13.32;9.20;;;22.20;99.90;;;;;;5073403;28;20104;-78
2022/06/28 03:32:43;;;;;;;10.45;9.35;;;22.10;99.90;;;;;;5073946;28;20032;-76
2022/06/28 03:35:09;;;;;;;12.40;11.07;;;22.10;99.90;;;;;;5074302;28;20361;-76
2022/06/28 03:37:36;;;;;;;11.88;10.32;;;22.10;99.90;;;;;;5072343;28;20508;-77
2022/06/28 03:40:03;;;;;;;11.50;10.30;;;22.10;99.90;;;;;;5072577;28;20368;-76
2022/06/28 03:42:28;;;;;;;12.32;11.07;;;22.10;99.90;;;;;;5073539;28;20383;-77
2022/06/28 03:44:54;;;;;;;13.70;10.77;;;22.20;99.90;;;;;;5072284;28;20024;-77
2022/06/28 03:47:20;;;;;;;11.82;10.40;;;22.20;99.90;;;;;;5073800;28;20040;-78
2022/06/28 03:49:47;;;;;;;14.25;11.02;;;22.20;99.90;;;;;;5073974;28;20074;-76
2022/06/28 03:52:14;;;;;;;13.05;10.65;;;22.20;99.90;;;;;;5073743;28;20036;-77
2022/06/28 03:54:40;;;;;;;12.50;9.90;;;22.20;99.90;;;;;;5072460;28;20027;-77
2022/06/28 03:57:06;;;;;;;14.57;10.38;;;22.30;99.90;;;;;;5073723;28;20017;-77
2022/06/28 03:59:32;;;;;;;13.27;10.65;;;22.20;99.90;;;;;;5073285;28;20470;-76
2022/06/28 04:01:58;;;;;;;11.00;9.00;;;22.20;99.90;;;;;;5073453;28;20109;-76
2022/06/28 04:04:24;;;;;;;12.48;10.15;;;22.20;99.90;;;;;;5073363;28;20066;-76
2022/06/28 04:06:50;;;;;;;12.45;9.68;;;22.20;99.90;;;;;;5073402;28;20044;-76
2022/06/28 04:09:17;;;;;;;11.68;10.50;;;22.30;99.90;;;;;;5073629;28;20459;-76
2022/06/28 04:11:43;;;;;;;11.52;9.35;;;22.30;99.90;;;;;;5073037;28;20036;-77
2022/06/28 04:14:13;;;;;;;13.73;9.98;;;22.30;99.90;;;;;;5072334;28;20115;-77
2022/06/28 04:16:41;;;;;;;12.52;10.13;;;22.30;99.90;;;;;;5072493;28;20021;-77
2022/06/28 04:19:08;;;;;;;11.10;9.52;;;22.40;99.90;;;;;;5072066;28;20043;-76
2022/06/28 04:21:34;;;;;;;11.07;9.73;;;22.40;99.90;;;;;;5073789;28;20029;-76
2022/06/28 04:24:00;;;;;;;11.02;9.93;;;22.50;99.90;;;;;;5072222;28;20028;-76
2022/06/28 04:26:25;;;;;;;11.20;9.90;;;22.50;99.90;;;;;;5071633;28;20540;-78
2022/06/28 04:28:51;;;;;;;11.43;9.45;;;22.60;99.90;;;;;;5073545;28;20028;-77
2022/06/28 04:31:18;;;;;;;15.45;10.20;;;22.70;99.90;;;;;;5073295;28;20055;-76
2022/06/28 04:33:44;;;;;;;10.50;9.00;;;22.70;99.90;;;;;;5071788;28;20029;-77
2022/06/28 04:36:09;;;;;;;10.35;9.05;;;22.80;99.90;;;;;;5073069;28;20082;-76
2022/06/28 04:38:35;;;;;;;14.07;10.65;;;22.80;99.90;;;;;;5076344;28;20041;-76
2022/06/28 04:41:01;;;;;;;11.25;9.70;;;22.90;99.90;;;;;;5076808;28;20075;-75
2022/06/28 04:43:27;;;;;;;15.52;9.95;;;22.90;99.90;;;;;;5077089;28;20032;-77
2022/06/28 04:45:53;;;;;;;10.68;9.10;;;23.00;99.90;;;;;;5077261;28;20375;-76
2022/06/28 04:48:19;;;;;;;10.00;8.95;;;23.10;99.90;;;;;;5076704;28;20458;-77
2022/06/28 04:50:45;;;;;;;12.20;8.45;;;23.20;99.90;;;;;;5075905;28;20039;-76
2022/06/28 04:53:10;;;;;;;11.75;8.82;;;23.30;99.90;;;;;;5075479;28;20463;-77
2022/06/28 04:55:36;;;;;;;10.38;7.95;;;23.30;99.90;;;;;;5076365;28;20033;-75
2022/06/28 04:58:02;;;;;;;10.70;8.60;;;23.40;99.90;;;;;;5075165;28;20487;-76
2022/06/28 05:00:29;;;;;;;11.05;8.98;;;23.50;99.90;;;;;;5076070;28;20021;-77
2022/06/28 05:02:55;;;;;;;10.98;8.10;;;23.60;99.90;;;;;;5077102;28;20025;-76
2022/06/28 05:05:21;;;;;;;10.85;8.30;;;23.70;99.90;;;;;;5076660;28;20111;-76
2022/06/28 05:07:47;;;;;;;8.82;7.38;;;;;;;;;;5076262;28;20108;-77
2022/06/28 05:10:13;;;;;;;11.35;8.93;;;23.90;99.90;;;;;;5075254;28;20051;-76
2022/06/28 05:12:39;;;;;;;10.55;8.70;;;23.90;99.90;;;;;;5076881;28;20025;-77
2022/06/28 05:15:05;;;;;;;15.38;9.55;;;24.00;99.90;;;;;;5074883;28;20021;-76
2022/06/28 05:17:31;;;;;;;14.48;10.35;;;24.10;99.90;;;;;;5076172;28;20025;-77
2022/06/28 05:19:57;;;;;;;21.88;11.43;;;24.10;99.90;;;;;;5076143;28;20035;-76
2022/06/28 05:22:23;;;;;;;21.85;12.25;;;24.20;99.90;;;;;;5076055;28;20035;-76
2022/06/28 05:24:49;;;;;;;12.68;10.50;;;;;;;;;;5075091;28;20063;-77
2022/06/28 05:27:18;;;;;;;12.07;8.35;;;;;;;;;;5076404;28;20049;-82
2022/06/28 05:29:44;;;;;;;11.68;9.70;;;;;;;;;;5075631;28;20062;-78
2022/06/28 05:32:10;;;;;;;15.38;10.25;;;;;;;;;;5075851;28;20383;-78
2022/06/28 05:34:37;;;;;;;18.15;9.73;;;;;;;;;;5075846;28;20095;-79
2022/06/28 05:37:03;;;;;;;12.93;9.15;;;;;;;;;;5075840;28;20025;-79
2022/06/28 05:39:29;;;;;;;16.98;11.00;;;;;;;;;;5076344;28;20031;-78
2022/06/28 05:41:55;;;;;;;13.27;10.55;;;;;;;;;;5076028;28;20447;-79
2022/06/28 05:44:21;;;;;;;21.00;12.00;;;;;;;;;;5074482;28;20486;-78
2022/06/28 05:46:49;;;;;;;17.55;12.50;;;;;;;;;;5075968;28;20469;-77
2022/06/28 05:49:15;;;;;;;16.05;11.85;;;;;;;;;;5073373;28;20039;-76
2022/06/28 05:51:41;;;;;;;12.23;9.90;;;;;;;;;;5075404;28;20028;-77
2022/06/28 05:54:08;;;;;;;12.38;8.98;;;;;;;;;;5075789;28;20023;-75
2022/06/28 05:56:35;;;;;;;9.00;8.20;;;;;;;;;;5075184;28;20021;-76
2022/06/28 05:59:01;;;;;;;9.75;8.75;;;;;;;;;;5074572;28;20020;-75
2022/06/28 06:01:28;;;;;;;12.52;9.05;;;;;;;;;;5075723;28;20027;-76
2022/06/28 06:03:54;;;;;;;9.70;8.05;;;;;;;;;;5075399;28;20016;-76
2022/06/28 06:06:22;;;;;;;9.93;8.75;;;;;;;;;;5075535;28;20025;-75
2022/06/28 06:08:48;;;;;;;17.58;10.18;;;;;;;;;;5075458;28;20086;-75
2022/06/28 06:11:15;;;;;;;11.70;9.63;;;;;;;;;;5075107;28;20039;-75
2022/06/28 06:13:41;;;;;;;14.55;8.93;;;;;;;;;;5075658;28;20028;-74
2022/06/28 06:16:07;;;;;;;10.05;8.77;;;;;;;;;;5075634;28;20062;-75
2022/06/28 06:18:33;;;;;;;10.15;8.80;;;;;;;;;;5074953;28;20028;-75
2022/06/28 06:21:00;;;;;;;10.15;7.97;;;;;;;;;;5074994;28;20024;-75
2022/06/28 06:23:26;;;;;;;14.68;7.95;;;;;;;;;;5075226;28;20025;-76
2022/06/28 06:25:52;;;;;;;10.23;7.85;;;;;;;;;;5073418;28;20024;-76
2022/06/28 06:28:19;;;;;;;18.45;9.07;;;;;;;;;;5073815;28;20025;-77
2022/06/28 06:30:45;;;;;;;9.68;7.88;;;;;;;;;;5075075;28;20035;-77
2022/06/28 06:33:11;;;;;;;10.32;7.75;;;;;;;;;;5074689;28;20118;-75
2022/06/28 06:35:37;;;;;;;9.02;7.88;;;;;;;;;;5075196;28;20081;-77
2022/06/28 06:38:03;;;;;;;8.63;7.75;;;;;;;;;;5074783;28;20035;-77
2022/06/28 06:40:30;;;;;;;11.38;8.13;;;;;;;;;;5074374;28;20023;-75
2022/06/28 06:42:56;;;;;;;9.40;8.40;;;;;;;;;;5074569;28;20020;-75
2022/06/28 06:45:23;;;;;;;13.40;9.02;;;;;;;;;;5074429;28;20150;-77
2022/06/28 06:47:49;;;;;;;9.80;8.90;;;;;;;;;;5074696;28;20043;-75
2022/06/28 06:50:15;;;;;;;11.70;8.82;;;;;;;;;;5074556;28;20032;-75
2022/06/28 06:52:41;;;;;;;12.57;9.25;;;;;;;;;;5074306;28;20021;-77
2022/06/28 06:55:09;;;;;;;9.98;8.52;;;;;;;;;;5073235;28;20070;-76
2022/06/28 06:57:35;;;;;;;10.50;9.02;;;;;;;;;;5074481;28;20370;-77
2022/06/28 07:00:01;;;;;;;11.43;8.68;;;;;;;;;;5073762;28;20032;-76
2022/06/28 07:02:28;;;;;;;10.40;7.80;;;;;;;;;;5074024;28;20056;-75
2022/06/28 07:04:54;;;;;;;8.93;8.13;;;;;;;;;;5074353;28;20451;-75
2022/06/28 07:07:20;;;;;;;10.10;9.02;;;;;;;;;;5074251;28;20051;-75
2022/06/28 07:09:46;;;;;;;8.63;7.80;;;;;;;;;;5074257;28;20031;-75
2022/06/28 07:12:12;;;;;;;8.55;7.80;;;;;;;;;;5074055;28;20024;-76
2022/06/28 07:14:38;;;;;;;8.95;6.45;;;;;;;;;;5073658;28;20051;-76
2022/06/28 07:17:05;;;;;;;10.32;6.68;;;;;;;;;;5073076;28;20024;-76
2022/06/28 07:19:31;;;;;;;9.32;7.10;;;;;;;;;;5073754;28;20027;-75
2022/06/28 07:21:57;;;;;;;8.38;7.65;;;;;;;;;;5073679;28;20151;-76
2022/06/28 07:24:23;;;;;;;9.88;6.85;;;;;;;;;;5073901;28;20021;-75
2022/06/28 07:26:49;;;;;;;10.43;7.82;;;;;;;;;;5073871;28;20475;-76
2022/06/28 07:29:16;;;;;;;8.98;7.68;;;;;;;;;;5073270;28;20039;-77
2022/06/28 07:31:44;;;;;;;7.63;6.93;;;;;;;;;;5073451;28;20076;-76
2022/06/28 07:34:11;;;;;;;10.30;7.82;;;;;;;;;;5073691;28;20020;-75
2022/06/28 07:36:37;;;;;;;7.63;6.95;;;;;;;;;;5072617;28;20033;-76
2022/06/28 07:39:03;;;;;;;10.50;7.10;;;;;;;;;;5073074;28;20036;-75
2022/06/28 07:41:30;;;;;;;8.88;7.55;;;;;;;;;;5072333;28;20055;-76
2022/06/28 07:43:56;;;;;;;8.55;7.82;;;;;;;;;;5073727;28;20517;-75
2022/06/28 07:46:25;;;;;;;8.75;7.95;;;;;;;;;;5073688;28;20028;-76
2022/06/28 07:48:52;;;;;;;8.73;7.97;;;;;;;;;;5072673;28;20056;-76
2022/06/28 07:54:03;;;;;;;12.27;6.97;;;;;;;;;;5073579;28;20442;-75
2022/06/28 07:56:29;;;;;;;12.00;7.82;;;;;;;;;;5073213;28;20024;-76
2022/06/28 07:58:55;;;;;;;8.38;7.57;;;;;;;;;;5072852;28;20099;-76
2022/06/28 08:01:22;;;;;;;8.60;7.80;;;;;;;;;;5073250;28;20111;-76
2022/06/28 08:03:48;;;;;;;11.18;7.45;;;;;;;;;;5072908;28;20443;-76
2022/06/28 08:06:14;;;;;;;9.43;7.88;;;;;;;;;;5073356;28;20029;-76
2022/06/28 08:08:40;;;;;;;7.60;6.90;;;;;;;;;;5073181;28;20020;-75
2022/06/28 08:11:06;;;;;;;8.30;7.40;;;;;;;;;;5073115;28;20047;-76
2022/06/28 08:13:32;;;;;;;9.32;8.05;;;;;;;;;;5076265;28;20036;-76
2022/06/28 08:15:59;;;;;;;8.13;7.43;;;;;;;;;;5077312;28;20112;-75
2022/06/28 08:18:26;;;;;;;8.93;7.03;;;;;;;;;;5077076;28;20024;-75
2022/06/28 08:20:52;;;;;;;7.93;6.88;;;;;;;;;;5077333;28;20048;-77
2022/06/28 08:23:18;;;;;;;9.93;6.50;;;;;;;;;;5076885;28;20462;-75
2022/06/28 08:25:46;;;;;;;8.75;7.05;;;;;;;;;;5076122;28;20414;-75
2022/06/28 08:28:13;;;;;;;7.80;6.60;;;;;;;;;;5076463;28;20428;-75
2022/06/28 08:30:39;;;;;;;6.78;6.18;;;;;;;;;;5076099;28;20077;-75
2022/06/28 08:33:06;;;;;;;7.05;6.32;;;;;;;;;;5076672;28;20044;-75
2022/06/28 08:35:32;;;;;;;7.00;6.30;;;;;;;;;;5073593;28;20024;-76
2022/06/28 08:37:58;;;;;;;7.45;6.63;;;;;;;;;;5076278;28;20078;-75
2022/06/28 08:40:26;;;;;;;7.70;7.00;;;;;;;;;;5076813;28;20089;-76
2022/06/28 08:42:56;;;;;;;8.20;7.50;;;;;;;;;;5076902;28;20489;-76
2022/06/28 08:45:23;;;;;;;7.28;6.68;;;;;;;;;;5075984;28;20035;-75
2022/06/28 08:47:53;;;;;;;6.57;5.97;;;;;;;;;;5076362;28;20025;-76
2022/06/28 08:50:28;;;;;;;7.25;6.55;;;;;;;;;;5076334;28;20025;-75
2022/06/28 08:52:55;;;;;;;8.55;6.60;;;;;;;;;;5074216;28;20556;-77
2022/06/28 08:55:21;;;;;;;6.70;6.10;;;;;;;;;;5075957;28;20021;-76
2022/06/28 08:57:48;;;;;;;9.20;7.07;;;;;;;;;;5075896;28;20025;-75
2022/06/28 09:00:14;;;;;;;8.05;7.25;;;;;;;;;;5074542;28;20023;-75
2022/06/28 09:02:40;;;;;;;8.60;7.80;;;;;;;;;;5076055;28;20025;-77
2022/06/28 09:05:06;;;;;;;8.60;8.00;;;;;;;;;;5075952;28;20021;-76
2022/06/28 09:07:32;;;;;;;7.78;6.93;;;;;;;;;;5075848;28;20074;-76
2022/06/28 09:09:58;;;;;;;8.55;7.32;;;;;;;;;;5076497;28;20082;-75
2022/06/28 09:12:24;;;;;;;7.78;7.18;;;;;;;;;;5075970;28;20056;-76
2022/06/28 09:14:51;;;;;;;8.05;7.35;;;;;;;;;;5075932;28;20023;-77
2022/06/28 09:17:28;;;;;;;7.15;6.53;;;;;;;;;;5075815;28;20063;-75
2022/06/28 09:19:55;;;;;;;7.85;7.15;;;;;;;;;;5075992;28;20067;-75
2022/06/28 09:22:33;;;;;;;7.35;6.65;;;;;;;;;;5074962;28;20025;-76
2022/06/28 09:25:00;;;;;;;7.90;7.13;;;;;;;;;;5074999;28;20032;-75
2022/06/28 09:27:34;;;;;;;7.50;6.90;;;;;;;;;;5074317;28;20052;-75
2022/06/28 09:30:01;;;;;;;8.48;7.65;;;;;;;;;;5074700;28;20025;-75
2022/06/28 09:32:28;;;;;;;8.27;7.13;;;;;;;;;;5076071;28;20059;-76
2022/06/28 09:34:55;;;;;;;7.50;6.53;;;;;;;;;;5075934;28;20021;-74
2022/06/28 09:37:31;;;;;;;7.38;6.75;;;;;;;;;;5074622;28;20033;-76
2022/06/28 09:39:58;;;;;;;7.32;6.72;;;;;;;;;;5076080;28;20032;-75
2022/06/28 09:42:24;;;;;;;7.32;6.72;;;;;;;;;;5074571;28;20028;-74
2022/06/28 09:44:53;;;;;;;7.63;6.50;;;;;;;;;;5074600;28;20024;-75
2022/06/28 09:47:19;;;;;;;8.07;6.88;;;;;;;;;;5074298;28;20025;-74
2022/06/28 09:49:48;;;;;;;8.52;6.60;;;;;;;;;;5075613;28;20514;-75
2022/06/28 09:52:15;;;;;;;6.97;6.38;;;;;;;;;;5076110;28;20036;-75
2022/06/28 09:54:43;;;;;;;7.65;6.90;;;;;;;;;;5075552;28;20611;-73
2022/06/28 09:57:12;;;;;;;7.25;6.75;;;;;;;;;;5075489;28;20047;-74
2022/06/28 09:59:38;;;;;;;7.25;6.60;;;;;;;;;;5075777;28;20020;-74
2022/06/28 10:02:05;;;;;;;7.30;6.70;;;;;;;;;;5075064;28;20403;-75
2022/06/28 10:04:31;;;;;;;8.20;7.32;;;;;;;;;;5075632;28;20024;-74
2022/06/28 10:06:58;;;;;;;14.82;6.28;;;;;;;;;;5074370;28;20025;-74
2022/06/28 10:09:24;;;;;;;6.93;6.22;;;;;;;;;;5074503;28;20046;-75
2022/06/28 10:17:28;;;;;;;5.65;5.25;;;;;;;;;;5075154;28;20438;-75
2022/06/28 10:19:57;;;;;;;5.82;5.32;;;;;;;;;;5075392;28;20020;-75
2022/06/28 10:22:23;;;;;;;6.72;6.20;;;;;;;;;;5074864;28;20020;-76
2022/06/28 10:24:55;;;;;;;7.05;6.45;;;;;;;;;;5073922;28;20115;-74
2022/06/28 10:27:22;;;;;;;7.30;6.70;;;;;;;;;;5074697;28;20105;-75
2022/06/28 10:30:00;;;;;;;6.88;6.28;;;;;;;;;;5074758;28;20074;-75
2022/06/28 10:32:45;;;;;;;6.47;5.97;;;;;;;;;;5073683;28;20027;-73
2022/06/28 10:35:31;;;;;;;6.75;6.22;;;;;;;;;;5075030;28;20037;-74
2022/06/28 10:38:09;;;;;;;7.25;6.70;;;;;;;;;;5074645;28;20021;-75
2022/06/28 10:40:41;;;;;;;6.15;5.70;;;;;;;;;;5074876;28;20107;-74
2022/06/28 10:43:08;;;;;;;5.95;5.43;;;;;;;;;;5074774;28;20021;-75
2022/06/28 10:45:53;;;;;;;7.07;5.47;;;;;;;;;;5074550;28;20055;-75
2022/06/28 10:48:19;;;;;;;6.63;6.10;;;;;;;;;;5074743;28;20103;-74
2022/06/28 10:50:58;;;;;;;7.50;6.03;;;;;;;;;;5074657;28;20029;-75
2022/06/28 10:53:27;;;;;;;8.77;6.80;;;;;;;;;;5074618;28;20066;-74
2022/06/28 10:56:12;;;;;;;7.70;7.10;;;;;;;;;;5073292;28;20028;-74
2022/06/28 10:58:54;;;;;;;6.93;5.95;;;;;;;;;;5072915;28;20027;-75
2022/06/28 11:01:40;;;;;;;6.40;5.80;;;;;;;;;;5074191;28;20017;-75
2022/06/28 11:04:18;;;;;;;6.50;5.97;;;;;;;;;;5074609;28;20028;-74
2022/06/28 11:06:46;;;;;;;6.07;5.57;;;;;;;;;;5074388;28;20025;-74
2022/06/28 11:09:24;;;;;;;8.13;7.35;;;;;;;;;;5072989;28;20044;-74
2022/06/28 11:12:08;;;;;;;7.03;6.47;;;;;;;;;;5073768;28;20023;-75
2022/06/28 11:14:55;;;;;;;7.20;6.57;;;;;;;;;;5074525;28;20096;-75
2022/06/28 11:17:32;;;;;;;7.03;6.43;;;;;;;;;;5074497;28;20109;-74
2022/06/28 11:20:01;;;;;;;7.10;6.50;;;;;;;;;;5073565;28;20074;-74
2022/06/28 11:22:47;;;;;;;6.32;5.15;;;;;;;;;;5074160;28;20023;-73
2022/06/28 11:25:17;;;;;;;5.25;4.75;;;;;;;;;;5073620;28;20021;-74
2022/06/28 11:27:55;;;;;;;6.50;5.82;;;;;;;;;;5074334;28;20132;-75
2022/06/28 11:30:23;;;;;;;6.20;5.70;;;;;;;;;;5074066;28;20030;-75
2022/06/28 11:32:50;;;;;;;5.85;5.45;;;;;;;;;;5073661;28;20371;-75
2022/06/28 11:35:27;;;;;;;5.80;5.40;;;;;;;;;;5073714;28;20039;-74
2022/06/28 11:37:55;;;;;;;7.72;6.90;;;;;;;;;;5074446;28;20027;-76
2022/06/28 11:40:22;;;;;;;7.43;6.93;;;;;;;;;;5072282;28;20384;-73
2022/06/28 11:42:59;;;;;;;7.97;7.28;;;;;;;;;;5074180;28;20024;-73
2022/06/28 11:45:28;;;;;;;8.15;7.35;;;;;;;;;;5074194;28;20021;-75
2022/06/28 11:47:54;;;;;;;7.65;6.95;;;;;;;;;;5072528;28;20077;-74
2022/06/28 11:50:21;;;;;;;7.10;6.50;;;;;;;;;;5072463;28;20028;-75
2022/06/28 11:52:51;;;;;;;40.85;9.48;;;;;;;;;;5072478;28;20020;-73
2022/06/28 11:55:18;;;;;;;7.30;6.60;;;;;;;;;;5073219;28;20371;-73
2022/06/28 11:57:44;;;;;;;6.95;6.35;;;;;;;;;;5074112;28;20463;-75
2022/06/28 12:00:13;;;;;;;6.93;6.43;;;;;;;;;;5072365;28;20112;-75
2022/06/28 12:02:42;;;;;;;7.35;6.75;;;;;;;;;;5073176;28;20016;-74
2022/06/28 12:05:09;;;;;;;7.40;6.80;;;;;;;;;;5073426;28;20017;-74
2022/06/28 12:07:43;;;;;;;7.43;6.72;;;;;;;;;;5073301;28;20104;-75
2022/06/28 12:10:25;;;;;;;6.47;6.03;;;;;;;;;;5073659;28;20413;-74
2022/06/28 12:12:53;;;;;;;7.00;6.50;;;;;;;;;;5073661;28;20265;-74
2022/06/28 12:15:30;;;;;;;7.40;6.70;;;;;;;;;;5073237;28;20017;-74
2022/06/28 12:17:57;;;;;;;6.50;6.00;;;;;;;;;;5072318;28;20048;-75
2022/06/28 12:20:24;;;;;;;6.88;6.25;;;;;;;;;;5073225;28;20028;-75
2022/06/28 12:23:00;;;;;;;16.58;9.75;;;;;;;;;;5073443;28;20021;-74
2022/06/28 12:25:26;;;;;;;7.30;6.38;;;;;;;;;;5071973;28;20066;-75
2022/06/28 12:27:53;;;;;;;8.35;7.22;;;;;;;;;;5072104;28;20123;-74
2022/06/28 12:30:19;;;;;;;7.18;6.43;;;;;;;;;;5072256;28;20032;-74
2022/06/28 12:32:45;;;;;;;49.20;13.10;;;;;;;;;;5072222;28;20025;-75
2022/06/28 12:35:12;;;;;;;6.63;6.05;;;;;;;;;;5072337;28;20426;-75
2022/06/28 12:37:38;;;;;;;8.18;7.40;;;;;;;;;;5072020;28;20020;-75
2022/06/28 12:40:05;;;;;;;5.90;5.28;;;;;;;;;;5072430;28;20410;-75
2022/06/28 12:42:32;;;;;;;6.10;4.85;;;;;;;;;;5071821;28;20159;-76
2022/06/28 12:45:02;;;;;;;5.57;4.70;;;;;;;;;;5072403;28;20024;-75
2022/06/28 12:47:32;;;;;;;6.28;5.78;;;;;;;;;;5073256;28;20023;-74
2022/06/28 12:50:00;;;;;;;5.75;5.25;;;;;;;;;;5070997;28;20035;-76
2022/06/28 12:52:27;;;;;;;6.05;5.55;;;;;;;;;;5071387;28;20029;-76
2022/06/28 12:54:53;;;;;;;42.40;11.25;;;;;;;;;;5072680;28;20019;-75
2022/06/28 12:57:19;;;;;;;37.92;12.98;;;;;;;;;;5071886;28;20435;-74
2022/06/28 12:59:46;;;;;;;6.45;4.50;;;;;;;;;;5075102;28;20025;-74
2022/06/28 13:02:12;;;;;;;47.15;12.02;;;;;;;;;;5074448;28;20025;-76
2022/06/28 13:04:38;;;;;;;6.15;5.35;;;;;;;;;;5074178;28;20024;-76
2022/06/28 13:07:04;;;;;;;45.53;13.27;;;;;;;;;;5074744;28;20090;-74
2022/06/28 13:09:30;;;;;;;43.08;15.82;;;;;;;;;;5074855;28;20477;-75
2022/06/28 13:11:56;;;;;;;39.40;13.13;;;;;;;;;;5075644;28;20066;-76
2022/06/28 13:14:23;;;;;;;51.22;16.33;;;;;;;;;;5075078;28;20025;-75
2022/06/28 13:16:49;;;;;;;45.33;12.00;;;;;;;;;;5074153;28;20016;-75
2022/06/28 13:19:15;;;;;;;8.20;5.13;;;;;;;;;;5073209;28;20105;-76
2022/06/28 13:21:43;;;;;;;7.30;5.93;;;;;;;;;;5074766;28;20028;-75
2022/06/28 13:24:10;;;;;;;7.07;6.53;;;;;;;;;;5072405;28;20020;-74
2022/06/28 13:26:36;;;;;;;6.82;6.32;;;;;;;;;;5074513;28;20064;-75
2022/06/28 13:29:03;;;;;;;55.20;14.80;;;;;;;;;;5075015;28;20457;-76
2022/06/28 13:31:29;;;;;;;7.15;6.43;;;;;;;;;;5074134;28;20452;-76
2022/06/28 13:33:55;;;;;;;65.35;21.52;;;;;;;;;;5071637;28;20012;-75
2022/06/28 13:36:22;;;;;;;5.90;5.50;;;;;;;;;;5075298;28;20382;-74
2022/06/28 13:38:49;;;;;;;6.70;6.05;;;;;;;;;;5074223;28;20013;-75
2022/06/28 13:41:15;;;;;;;58.95;20.55;;;;;;;;;;5075471;28;20021;-76
2022/06/28 13:43:44;;;;;;;5.88;5.10;;;;;;;;;;5075468;28;20020;-75
2022/06/28 13:46:12;;;;;;;8.68;5.85;;;;;;;;;;5074766;28;20518;-75
2022/06/28 13:48:39;;;;;;;57.90;15.90;;;;;;;;;;5074643;28;20422;-76
2022/06/28 13:51:06;;;;;;;55.60;15.30;;;;;;;;;;5074909;28;20046;-75
2022/06/28 13:53:35;;;;;;;54.67;14.55;;;;;;;;;;5074750;28;20028;-75
2022/06/28 13:56:01;;;;;;;6.00;5.60;;;;;;;;;;5074951;28;20376;-75
2022/06/28 13:58:29;;;;;;;6.22;5.63;;;;;;;;;;5074824;28;20025;-75
2022/06/28 14:00:57;;;;;;;48.72;12.52;;;;;;;;;;5074447;28;20017;-74
2022/06/28 14:03:24;;;;;;;57.35;18.55;;;;;;;;;;5074941;28;20020;-74
2022/06/28 14:05:50;;;;;;;51.50;23.40;;;;;;;;;;5074676;28;20028;-75